Погода Хаммерштейнна 2 недели

Карас, Намибия

02 - 15 марта
  • 02марта
    Сегодня
    +26°
    +35°
    Небольшая облачность
    ВремяПогодаТемператураВлажностьДавлениеВетер, м/сВероятность осадков
    02:00Облачно с прояснениями+28°C35 %654 мм4.4 м/с5 %
    05:00Практически безоблачно+26°C36 %653 мм2.7 м/с5 %
    08:00Ясно и безоблачно+27°C35 %654 мм0.7 м/с5 %
    11:00Облачно с прояснениями+32°C23 %656 мм2.4 м/с1 %
    14:00Небольшая облачность+34°C20 %655 мм2.6 м/с1 %
    17:00Облачно с прояснениями+35°C18 %654 мм2.7 м/с29 %
    20:00Облачно с прояснениями+30°C26 %654 мм4.4 м/с38 %
    23:00Практически безоблачно+28°C33 %655 мм3.3 м/с7 %
  • 03марта
    Воскресенье
    +20°
    +36°
    Практически безоблачно
    ВремяПогодаТемператураВлажностьДавлениеВетер, м/сВероятность осадков
    02:00Пасмурно, сплошная облачность+26°C40 %654 мм4.6 м/с6 %
    05:00Пасмурно, сплошная облачность+27°C39 %653 мм3.9 м/с4 %
    08:00Практически безоблачно+27°C37 %654 мм2.9 м/с3 %
    11:00Практически безоблачно+32°C24 %655 мм1.9 м/с4 %
    14:00Практически безоблачно+36°C18 %654 мм5.3 м/с5 %
    17:00Практически безоблачно+36°C15 %652 мм4.9 м/с3 %
    20:00Ясно и безоблачно+32°C18 %652 мм8.9 м/с5 %
    23:00Ясно и безоблачно+27°C25 %652 мм6.2 м/с5 %
  • 04марта
    Понедельник
    +15°
    +36°
    Ясно и безоблачно
    ВремяПогодаТемператураВлажностьДавлениеВетер, м/сВероятность осадков
    02:00Ясно и безоблачно+24°C30 %651 мм4.8 м/с5 %
    05:00Ясно и безоблачно+22°C26 %650 мм4.1 м/с5 %
    08:00Практически безоблачно+23°C28 %651 мм1.6 м/с5 %
    11:00Практически безоблачно+31°C11 %653 мм3.0 м/с5 %
    14:00Ясно и безоблачно+34°C10 %652 мм6.4 м/с5 %
    17:00Ясно и безоблачно+34°C11 %651 мм9.5 м/с5 %
    20:00Ясно и безоблачно+27°C28 %651 мм7.5 м/с5 %
    23:00Ясно и безоблачно+22°C40 %651 мм4.5 м/с5 %
  • 05марта
    Вторник
    +18°
    +32°
    Ясно и безоблачно
    ВремяПогодаТемператураВлажностьДавлениеВетер, м/сВероятность осадков
    02:00Практически безоблачно+20°C48 %650 мм1.8 м/с5 %
    05:00Облачно с прояснениями+16°C61 %650 мм4.6 м/с5 %
    08:00Ясно и безоблачно+16°C63 %651 мм5.4 м/с5 %
    11:00Ясно и безоблачно+24°C32 %653 мм3.7 м/с5 %
    14:00Ясно и безоблачно+29°C21 %652 мм2.4 м/с5 %
    17:00Ясно и безоблачно+32°C16 %651 мм2.6 м/с5 %
    20:00Ясно и безоблачно+28°C9 %651 мм5.6 м/с5 %
    23:00Ясно и безоблачно+24°C13 %651 мм2.9 м/с5 %
  • 06марта
    Среда
    +19°
    +34°
    Ясно и безоблачно
    ВремяПогодаТемператураВлажностьДавлениеВетер, м/сВероятность осадков
    02:00Ясно и безоблачно+21°C24 %650 мм2.5 м/с5 %
    05:00Ясно и безоблачно+19°C12 %650 мм4.1 м/с5 %
    08:00Ясно и безоблачно+21°C19 %652 мм3.1 м/с5 %
    11:00Ясно и безоблачно+28°C14 %653 мм3.7 м/с5 %
    14:00Ясно и безоблачно+32°C10 %653 мм1.3 м/с5 %
    17:00Ясно и безоблачно+34°C6 %652 мм4.6 м/с5 %
    20:00Ясно и безоблачно+30°C11 %652 мм5.9 м/с5 %
    23:00Практически безоблачно+25°C26 %652 мм6.4 м/с5 %
Мы используем cookies
Соглашаюсь